Time;durP1;ratioP1;P1;durP2;ratioP2;P2;SDS_P1;SDS_P2;PMS_P1;PMS_P2;Temp;Humidity;BMP_temperature;BMP_pressure;BME280_temperature;BME280_humidity;BME280_pressure;Samples;Min_cycle;Max_cycle;Signal;HPM_P1;HPM_P2
2023/07/05 00:01:00;;;;;;;7.10;3.30;;;16.90;71.50;;;;;;4968637;28;20049;-82
2023/07/05 00:03:28;;;;;;;7.30;3.22;;;16.80;71.40;;;;;;4974619;28;20475;-82
2023/07/05 00:05:55;;;;;;;7.57;3.30;;;16.90;71.40;;;;;;4987838;28;20055;-82
2023/07/05 00:08:23;;;;;;;7.75;3.50;;;16.90;71.60;;;;;;4986958;28;20051;-82
2023/07/05 00:10:50;;;;;;;8.15;3.40;;;16.90;71.70;;;;;;4992051;28;20592;-82
2023/07/05 00:13:17;;;;;;;7.35;2.80;;;16.90;72.20;;;;;;4987627;28;20054;-81
2023/07/05 00:15:47;;;;;;;8.27;3.42;;;16.80;72.10;;;;;;4988026;28;20523;-82
2023/07/05 00:18:16;;;;;;;8.00;3.50;;;16.80;72.20;;;;;;4987351;28;20061;-82
2023/07/05 00:20:43;;;;;;;7.35;3.33;;;16.80;72.10;;;;;;4987839;28;20137;-82
2023/07/05 00:23:09;;;;;;;8.30;3.72;;;16.70;72.20;;;;;;4987385;28;20055;-82
2023/07/05 00:25:36;;;;;;;8.50;4.00;;;16.70;72.30;;;;;;4987588;28;20061;-82
2023/07/05 00:28:03;;;;;;;10.23;3.95;;;16.70;72.50;;;;;;5001591;28;20587;-82
2023/07/05 00:30:30;;;;;;;8.53;4.20;;;16.70;72.60;;;;;;4978184;28;20069;-82
2023/07/05 00:32:57;;;;;;;9.45;3.58;;;16.70;72.50;;;;;;4966339;28;20082;-82
2023/07/05 00:35:26;;;;;;;10.43;3.80;;;16.60;72.40;;;;;;4971342;28;20053;-82
2023/07/05 00:37:53;;;;;;;9.75;3.92;;;16.60;72.80;;;;;;4971386;28;20074;-81
2023/07/05 00:40:21;;;;;;;8.82;4.28;;;16.60;73.00;;;;;;4989080;28;20065;-82
2023/07/05 00:42:48;;;;;;;7.93;3.80;;;16.60;73.10;;;;;;4970524;28;20539;-82
2023/07/05 00:45:43;;;;;;;7.15;3.90;;;16.60;73.30;;;;;;5001032;28;20051;-82
2023/07/05 00:48:14;;;;;;;8.25;4.35;;;16.60;73.30;;;;;;4975728;28;20059;-82
2023/07/05 00:50:46;;;;;;;10.00;4.43;;;16.50;73.30;;;;;;4987707;28;20051;-82
2023/07/05 00:53:13;;;;;;;9.30;4.28;;;16.50;73.50;;;;;;4993698;28;20113;-82
2023/07/05 00:55:48;;;;;;;8.40;4.20;;;16.50;73.80;;;;;;4990710;28;20057;-82
2023/07/05 00:58:16;;;;;;;9.07;4.10;;;16.50;73.90;;;;;;4971692;28;20048;-82
2023/07/05 01:00:44;;;;;;;9.57;4.65;;;16.50;74.00;;;;;;4954036;28;20085;-82
2023/07/05 01:03:16;;;;;;;8.80;4.85;;;16.40;74.20;;;;;;5007159;28;20054;-82
2023/07/05 01:05:45;;;;;;;9.57;4.78;;;16.40;74.40;;;;;;4986272;28;20548;-82
2023/07/05 01:08:12;;;;;;;9.93;4.30;;;16.40;74.50;;;;;;4987351;28;20053;-82
2023/07/05 01:10:41;;;;;;;10.10;4.78;;;16.40;74.70;;;;;;4974372;28;20051;-82
2023/07/05 01:13:16;;;;;;;8.38;4.30;;;16.40;74.70;;;;;;4970348;28;20498;-82
2023/07/05 01:15:49;;;;;;;11.60;4.93;;;16.40;74.70;;;;;;4970671;28;20150;-81
2023/07/05 01:18:25;;;;;;;8.65;4.97;;;16.40;74.70;;;;;;5005508;28;20055;-81
2023/07/05 01:20:59;;;;;;;9.23;4.73;;;16.40;75.00;;;;;;4988104;28;20054;-81
2023/07/05 01:23:52;;;;;;;11.20;4.55;;;16.40;75.00;;;;;;4970674;28;20050;-82
2023/07/05 01:26:38;;;;;;;10.05;4.60;;;16.40;75.20;;;;;;4970618;28;20052;-82
2023/07/05 01:29:36;;;;;;;10.10;5.10;;;16.40;75.20;;;;;;5005296;28;20530;-81
2023/07/05 01:32:09;;;;;;;10.68;4.75;;;16.40;75.50;;;;;;4963051;28;20057;-82
2023/07/05 01:34:44;;;;;;;9.63;4.90;;;16.40;75.50;;;;;;4987030;28;20367;-81
2023/07/05 01:37:24;;;;;;;8.85;4.70;;;16.40;75.50;;;;;;4987028;28;20039;-81
2023/07/05 01:39:51;;;;;;;10.80;5.55;;;16.40;75.60;;;;;;4990013;28;20051;-81
2023/07/05 01:42:21;;;;;;;11.13;5.88;;;16.30;75.60;;;;;;4984219;28;20130;-81
2023/07/05 01:44:48;;;;;;;10.35;5.55;;;16.30;75.80;;;;;;4974679;28;20046;-82
2023/07/05 01:47:18;;;;;;;10.73;5.00;;;16.30;75.90;;;;;;4969067;28;20277;-81
2023/07/05 01:49:59;;;;;;;11.57;6.07;;;16.20;76.10;;;;;;4951048;28;20797;-81
2023/07/05 01:52:34;;;;;;;10.23;5.90;;;16.20;76.30;;;;;;4969604;28;20433;-81
2023/07/05 01:55:09;;;;;;;12.05;6.28;;;16.20;76.40;;;;;;4989854;28;20488;-81
2023/07/05 01:57:41;;;;;;;10.07;5.70;;;16.20;76.50;;;;;;4967137;28;20502;-81
2023/07/05 02:00:15;;;;;;;10.43;5.50;;;16.20;76.60;;;;;;4951106;28;20601;-81
2023/07/05 02:02:52;;;;;;;9.70;5.43;;;16.10;76.80;;;;;;5005250;28;20050;-80
2023/07/05 02:05:21;;;;;;;10.52;5.68;;;16.10;77.00;;;;;;5005412;28;20062;-81
2023/07/05 02:07:48;;;;;;;12.73;5.78;;;16.10;77.10;;;;;;5003521;28;20193;-81
2023/07/05 02:10:15;;;;;;;9.95;5.78;;;16.00;76.90;;;;;;5008097;28;20054;-81
2023/07/05 02:12:43;;;;;;;13.27;5.50;;;16.10;77.10;;;;;;4993198;28;20078;-81
2023/07/05 02:15:11;;;;;;;13.05;6.05;;;16.10;77.20;;;;;;4984196;28;20071;-81
2023/07/05 02:17:38;;;;;;;11.23;5.72;;;16.00;77.30;;;;;;4954000;28;21034;-81
2023/07/05 02:20:08;;;;;;;10.52;5.53;;;16.00;77.50;;;;;;4974775;28;20118;-81
2023/07/05 02:22:35;;;;;;;13.50;6.25;;;16.00;77.60;;;;;;4973265;28;20062;-81
2023/07/05 02:25:02;;;;;;;11.00;5.90;;;16.00;77.50;;;;;;4988874;28;20118;-81
2023/07/05 02:27:29;;;;;;;11.45;6.15;;;16.00;77.80;;;;;;5008935;28;20639;-81
2023/07/05 02:29:56;;;;;;;11.27;6.00;;;16.00;78.00;;;;;;4989951;28;20050;-81
2023/07/05 02:32:24;;;;;;;11.70;6.40;;;15.90;78.10;;;;;;4989424;28;20050;-81
2023/07/05 02:34:53;;;;;;;9.45;5.75;;;15.90;78.40;;;;;;4989994;28;20073;-80
2023/07/05 02:37:22;;;;;;;13.30;6.20;;;15.90;78.40;;;;;;4993150;28;20136;-80
2023/07/05 02:39:53;;;;;;;11.80;6.40;;;15.90;78.60;;;;;;5007273;28;20166;-81
2023/07/05 02:42:19;;;;;;;12.35;6.78;;;15.90;78.70;;;;;;4989396;28;20486;-81
2023/07/05 02:44:48;;;;;;;11.45;6.53;;;15.90;78.80;;;;;;5000654;28;20138;-80
2023/07/05 02:47:18;;;;;;;12.38;6.47;;;15.80;78.50;;;;;;4989442;28;20102;-80
2023/07/05 02:49:45;;;;;;;10.07;6.50;;;15.80;78.70;;;;;;4989353;28;20050;-81
2023/07/05 02:52:11;;;;;;;10.65;6.63;;;15.90;78.80;;;;;;4974371;28;20051;-80
2023/07/05 02:54:40;;;;;;;12.27;6.70;;;15.90;78.70;;;;;;4982713;28;20055;-80
2023/07/05 02:57:07;;;;;;;12.02;6.47;;;15.90;78.90;;;;;;4969641;28;20055;-81
2023/07/05 02:59:35;;;;;;;12.38;6.68;;;15.90;79.00;;;;;;4980511;28;20049;-80
2023/07/05 03:02:02;;;;;;;12.57;6.93;;;15.80;79.20;;;;;;4991318;28;20058;-80
2023/07/05 03:04:29;;;;;;;11.98;7.05;;;15.80;79.10;;;;;;4969347;28;20538;-80
2023/07/05 03:06:57;;;;;;;12.45;6.93;;;15.80;79.00;;;;;;4953198;28;20050;-80
2023/07/05 03:09:24;;;;;;;12.27;6.88;;;15.90;79.10;;;;;;4973425;28;20050;-80
2023/07/05 03:11:52;;;;;;;13.38;7.45;;;15.90;79.30;;;;;;4988602;28;20051;-80
2023/07/05 03:14:19;;;;;;;11.93;6.50;;;15.90;79.40;;;;;;4972861;28;20047;-80
2023/07/05 03:16:48;;;;;;;12.60;7.35;;;15.90;79.50;;;;;;4988907;28;20083;-80
2023/07/05 03:19:15;;;;;;;13.38;6.93;;;15.90;79.40;;;;;;5006258;28;20057;-81
2023/07/05 03:21:42;;;;;;;11.20;6.65;;;15.90;79.70;;;;;;4991365;28;20104;-80
2023/07/05 03:24:09;;;;;;;11.20;6.38;;;15.90;79.70;;;;;;4978395;28;20084;-81
2023/07/05 03:26:36;;;;;;;12.87;6.90;;;15.90;79.60;;;;;;4988371;28;20398;-80
2023/07/05 03:29:05;;;;;;;11.43;6.35;;;15.90;79.80;;;;;;4972347;28;20449;-80
2023/07/05 03:31:32;;;;;;;12.57;7.45;;;15.90;80.00;;;;;;5004849;28;20054;-80
2023/07/05 03:33:59;;;;;;;12.43;6.85;;;15.80;80.00;;;;;;4969350;28;20597;-81
2023/07/05 03:36:26;;;;;;;12.30;6.38;;;15.80;80.10;;;;;;4979244;28;20141;-80
2023/07/05 03:38:53;;;;;;;11.50;6.47;;;15.80;80.40;;;;;;5003577;28;20074;-80
2023/07/05 03:41:24;;;;;;;11.63;6.85;;;15.80;80.40;;;;;;5004178;28;20059;-81
2023/07/05 03:43:55;;;;;;;10.52;6.47;;;15.80;80.50;;;;;;4987128;28;20134;-80
2023/07/05 03:46:24;;;;;;;12.57;6.82;;;15.80;80.90;;;;;;5006464;28;20051;-80
2023/07/05 03:48:51;;;;;;;11.90;7.28;;;15.80;81.10;;;;;;5003563;28;20149;-81
2023/07/05 03:51:21;;;;;;;12.13;6.63;;;15.80;81.30;;;;;;5002704;28;20069;-80
2023/07/05 03:53:52;;;;;;;10.27;6.05;;;15.90;82.10;;;;;;4991697;28;20069;-80
2023/07/05 03:56:19;;;;;;;11.93;6.75;;;16.00;82.90;;;;;;5002849;28;20147;-80
2023/07/05 03:58:46;;;;;;;11.77;6.70;;;16.00;82.60;;;;;;5002691;28;20541;-80
2023/07/05 04:01:17;;;;;;;12.68;7.03;;;16.00;82.80;;;;;;5003225;28;20065;-80
2023/07/05 04:03:48;;;;;;;9.60;5.87;;;16.00;83.00;;;;;;4985633;28;20047;-81
2023/07/05 04:06:15;;;;;;;11.30;6.20;;;16.00;83.50;;;;;;4986589;28;20051;-80
2023/07/05 04:08:42;;;;;;;13.15;6.53;;;16.00;83.60;;;;;;4988611;28;20141;-80
2023/07/05 04:11:10;;;;;;;12.70;6.32;;;16.00;83.40;;;;;;4995181;28;20169;-81
2023/07/05 04:13:37;;;;;;;10.70;6.40;;;16.10;83.70;;;;;;5006374;28;20475;-80
2023/07/05 04:16:08;;;;;;;11.07;6.20;;;16.10;83.80;;;;;;4997960;28;20049;-81
2023/07/05 04:18:36;;;;;;;9.55;5.15;;;16.10;84.00;;;;;;5002832;28;20133;-80
2023/07/05 04:21:05;;;;;;;9.70;5.50;;;16.20;84.00;;;;;;4997880;28;20058;-80
2023/07/05 04:23:32;;;;;;;9.60;5.13;;;16.20;83.80;;;;;;4970292;28;20061;-81
2023/07/05 04:26:00;;;;;;;9.80;5.10;;;16.20;83.70;;;;;;4987649;28;20137;-81
2023/07/05 04:28:27;;;;;;;9.13;4.70;;;16.20;83.80;;;;;;4988115;28;20062;-80
2023/07/05 04:30:54;;;;;;;8.57;4.07;;;16.20;83.60;;;;;;4999340;28;20054;-81
2023/07/05 04:33:21;;;;;;;8.55;3.53;;;16.20;82.60;;;;;;4986252;28;20133;-80
2023/07/05 04:35:51;;;;;;;10.45;3.88;;;16.20;82.40;;;;;;4986209;28;20059;-80
2023/07/05 04:38:19;;;;;;;8.00;3.60;;;16.20;82.10;;;;;;4996181;28;20057;-80
2023/07/05 04:40:46;;;;;;;6.37;3.47;;;16.20;81.80;;;;;;4997976;28;20051;-81
2023/07/05 04:43:13;;;;;;;6.53;3.33;;;16.20;82.10;;;;;;4932427;28;1071108;-81
2023/07/05 04:45:40;;;;;;;7.45;3.53;;;16.10;81.70;;;;;;4988788;28;20050;-80
2023/07/05 04:48:07;;;;;;;7.75;3.47;;;16.20;81.50;;;;;;5006900;28;20060;-81
2023/07/05 04:50:34;;;;;;;6.67;3.73;;;16.20;80.40;;;;;;4999727;28;20043;-81
2023/07/05 04:53:01;;;;;;;7.47;3.70;;;16.20;77.60;;;;;;5004617;28;20051;-81
2023/07/05 04:55:29;;;;;;;6.93;3.50;;;16.10;76.60;;;;;;4996074;28;20058;-82
2023/07/05 04:57:56;;;;;;;7.78;3.40;;;16.00;76.70;;;;;;4968255;28;20047;-81
2023/07/05 05:00:24;;;;;;;6.13;3.40;;;15.90;76.90;;;;;;4975983;28;20429;-82
2023/07/05 05:02:51;;;;;;;7.90;3.20;;;15.80;76.90;;;;;;4996302;28;20114;-81
2023/07/05 05:05:18;;;;;;;7.15;3.10;;;15.80;76.00;;;;;;5001084;28;20500;-81
2023/07/05 05:07:45;;;;;;;6.43;3.22;;;15.70;75.50;;;;;;4987607;28;20519;-81
2023/07/05 05:10:12;;;;;;;6.45;3.45;;;15.60;75.50;;;;;;4986670;28;20057;-81
2023/07/05 05:12:41;;;;;;;9.32;3.53;;;15.50;75.20;;;;;;4989712;28;20050;-81
2023/07/05 05:15:09;;;;;;;6.50;3.40;;;15.40;75.30;;;;;;4984592;28;20516;-81
2023/07/05 05:17:36;;;;;;;5.85;2.83;;;15.30;75.40;;;;;;4990601;28;20607;-81
2023/07/05 05:20:04;;;;;;;6.95;3.50;;;15.30;75.70;;;;;;4993456;28;20050;-81
2023/07/05 05:22:31;;;;;;;6.38;3.47;;;15.20;76.00;;;;;;4986968;28;20130;-82
2023/07/05 05:24:58;;;;;;;6.20;2.67;;;15.20;76.40;;;;;;4987391;28;20132;-82
2023/07/05 05:27:25;;;;;;;6.90;3.30;;;15.10;76.20;;;;;;4990404;28;20050;-78
2023/07/05 05:29:53;;;;;;;6.70;3.60;;;15.10;76.20;;;;;;4989335;28;20055;-77
2023/07/05 05:32:21;;;;;;;12.30;3.90;;;15.00;76.60;;;;;;5017600;28;20106;-78
2023/07/05 05:34:48;;;;;;;6.55;3.28;;;15.10;77.10;;;;;;5003297;28;20059;-78
2023/07/05 05:37:15;;;;;;;5.35;2.85;;;15.10;77.00;;;;;;4985252;28;20059;-78
2023/07/05 05:39:42;;;;;;;6.77;3.43;;;15.00;76.80;;;;;;4986470;28;20584;-78
2023/07/05 05:42:09;;;;;;;6.82;3.10;;;15.10;76.40;;;;;;4987772;28;20061;-76
2023/07/05 05:44:36;;;;;;;6.35;3.30;;;15.10;76.10;;;;;;4989308;28;20050;-77
2023/07/05 05:47:05;;;;;;;7.05;3.20;;;15.20;75.60;;;;;;4990662;28;20126;-83
2023/07/05 05:49:32;;;;;;;6.22;2.78;;;15.10;75.70;;;;;;4990919;28;20510;-81
2023/07/05 05:51:59;;;;;;;6.20;3.27;;;15.10;75.50;;;;;;4997474;28;20505;-81
2023/07/05 05:54:26;;;;;;;5.70;2.78;;;15.10;75.60;;;;;;4997836;28;20089;-82
2023/07/05 05:56:53;;;;;;;6.35;3.30;;;15.00;75.70;;;;;;4990661;28;20043;-82
2023/07/05 05:59:20;;;;;;;6.35;2.97;;;15.00;75.80;;;;;;4994658;28;20053;-82
2023/07/05 06:02:19;;;;;;;7.75;3.08;;;15.00;75.80;;;;;;4997816;28;20050;-82
2023/07/05 06:04:46;;;;;;;6.30;2.93;;;15.00;75.90;;;;;;4999437;28;20122;-82
2023/07/05 06:07:13;;;;;;;7.43;2.90;;;15.00;76.10;;;;;;4998197;28;20054;-82
2023/07/05 06:09:44;;;;;;;6.65;2.75;;;15.00;76.00;;;;;;4999801;28;20448;-82
2023/07/05 06:12:12;;;;;;;6.35;3.08;;;15.00;76.00;;;;;;4997167;28;20146;-82
2023/07/05 06:14:39;;;;;;;7.28;2.95;;;15.00;75.90;;;;;;4995736;28;20145;-82
2023/07/05 06:17:06;;;;;;;6.47;2.97;;;15.00;75.40;;;;;;4999890;28;20139;-82
2023/07/05 06:19:35;;;;;;;7.55;3.13;;;15.00;75.10;;;;;;5001692;28;20097;-82
2023/07/05 06:22:02;;;;;;;6.57;2.90;;;15.00;75.00;;;;;;4997837;28;20057;-82
2023/07/05 06:24:31;;;;;;;5.90;2.38;;;15.00;75.20;;;;;;4997916;28;20062;-82
2023/07/05 06:26:59;;;;;;;6.20;2.80;;;15.10;74.80;;;;;;4991638;28;20058;-82
2023/07/05 06:29:26;;;;;;;7.27;2.40;;;15.10;75.00;;;;;;5001995;28;20521;-82
2023/07/05 06:31:53;;;;;;;7.13;2.85;;;15.10;75.20;;;;;;4998762;28;20582;-82
2023/07/05 06:34:20;;;;;;;7.00;3.17;;;15.20;75.40;;;;;;5000205;28;20067;-81
2023/07/05 06:36:48;;;;;;;5.28;2.42;;;15.20;75.50;;;;;;4998258;28;20066;-81
2023/07/05 06:39:15;;;;;;;4.88;2.08;;;15.30;75.00;;;;;;5002757;28;20735;-82
2023/07/05 06:41:42;;;;;;;6.27;2.80;;;15.30;74.70;;;;;;4993986;28;20054;-82
2023/07/05 06:44:10;;;;;;;6.50;3.03;;;15.30;74.60;;;;;;4993978;28;21051;-82
2023/07/05 06:46:37;;;;;;;6.00;2.63;;;15.40;74.10;;;;;;4997206;28;20126;-82
2023/07/05 06:49:04;;;;;;;7.45;2.90;;;15.40;73.60;;;;;;4988432;28;20053;-82
2023/07/05 06:51:31;;;;;;;7.45;2.95;;;15.50;73.30;;;;;;4989814;28;20057;-79
2023/07/05 06:53:59;;;;;;;7.53;3.00;;;15.50;73.30;;;;;;4991744;28;20054;-80
2023/07/05 06:56:26;;;;;;;8.70;2.97;;;15.50;72.70;;;;;;4995201;28;20586;-80
2023/07/05 06:58:53;;;;;;;6.55;2.50;;;15.60;71.50;;;;;;4993316;28;20129;-81
2023/07/05 07:01:20;;;;;;;6.05;1.95;;;15.60;71.50;;;;;;4990484;28;20568;-80
2023/07/05 07:03:48;;;;;;;6.38;2.20;;;15.50;71.50;;;;;;4992746;28;20493;-79
2023/07/05 07:06:15;;;;;;;5.83;2.23;;;15.50;71.80;;;;;;4979332;28;20122;-80
2023/07/05 07:08:42;;;;;;;5.60;1.90;;;15.50;72.20;;;;;;4994772;28;20539;-79
2023/07/05 07:11:13;;;;;;;6.78;2.70;;;15.50;72.10;;;;;;4990014;28;20050;-80
2023/07/05 07:13:41;;;;;;;5.40;2.00;;;15.40;72.50;;;;;;4980561;28;21006;-79
2023/07/05 07:16:11;;;;;;;6.20;2.80;;;15.40;72.70;;;;;;4986691;28;20795;-79
2023/07/05 07:18:38;;;;;;;6.97;2.23;;;15.50;72.70;;;;;;4986939;28;20052;-79
2023/07/05 07:21:08;;;;;;;4.53;1.98;;;15.50;72.20;;;;;;4992397;28;20046;-79
2023/07/05 07:23:36;;;;;;;6.90;2.40;;;15.50;72.60;;;;;;5001940;28;20170;-79
2023/07/05 07:26:05;;;;;;;5.93;2.30;;;15.50;73.10;;;;;;4996476;28;20461;-78
2023/07/05 07:28:34;;;;;;;6.82;2.78;;;15.40;73.90;;;;;;4992154;28;20063;-79
2023/07/05 07:31:10;;;;;;;7.27;2.73;;;15.40;74.90;;;;;;4985489;28;20133;-79
2023/07/05 07:33:37;;;;;;;5.68;2.53;;;15.30;75.40;;;;;;4987136;28;21053;-78
2023/07/05 07:36:09;;;;;;;5.10;1.98;;;15.20;75.60;;;;;;4984101;28;20043;-79
2023/07/05 07:38:36;;;;;;;5.07;1.90;;;15.10;74.50;;;;;;4989862;28;20085;-79
2023/07/05 07:41:03;;;;;;;5.40;1.63;;;15.00;75.00;;;;;;4988656;28;20054;-76
2023/07/05 07:43:30;;;;;;;5.37;1.27;;;15.00;73.60;;;;;;4971883;28;20134;-79
2023/07/05 07:45:58;;;;;;;4.28;1.05;;;14.90;72.90;;;;;;4987514;28;20047;-78
2023/07/05 07:48:26;;;;;;;5.50;1.00;;;14.70;72.10;;;;;;4987181;28;20058;-78
2023/07/05 07:50:59;;;;;;;3.78;0.80;;;14.50;72.50;;;;;;4983279;28;20118;-78
2023/07/05 07:53:26;;;;;;;3.22;0.80;;;14.40;73.20;;;;;;4986020;28;20055;-77
2023/07/05 07:55:53;;;;;;;5.73;0.80;;;14.20;73.30;;;;;;4982326;28;20053;-78
2023/07/05 07:58:20;;;;;;;3.80;0.75;;;14.10;73.80;;;;;;4979845;28;20061;-79
2023/07/05 08:00:47;;;;;;;3.67;0.80;;;14.00;74.10;;;;;;4985537;28;20062;-78
2023/07/05 08:03:15;;;;;;;5.13;0.70;;;13.80;75.00;;;;;;4980550;28;20047;-79
2023/07/05 08:05:42;;;;;;;2.25;0.57;;;13.70;75.40;;;;;;4982677;28;20567;-79
2023/07/05 08:08:10;;;;;;;2.90;0.60;;;13.60;75.60;;;;;;4988103;28;20051;-82
2023/07/05 08:10:37;;;;;;;3.65;0.60;;;13.50;75.60;;;;;;4988775;28;20180;-87
2023/07/05 08:13:04;;;;;;;3.63;0.60;;;13.40;76.40;;;;;;4987995;28;20063;-83
2023/07/05 08:15:31;;;;;;;3.65;0.50;;;13.30;76.60;;;;;;4987926;28;20166;-82
2023/07/05 08:21:44;;;;;;;2.53;0.30;;;13.30;76.10;;;;;;4991316;28;20067;-82
2023/07/05 08:24:11;;;;;;;2.75;0.30;;;13.10;76.40;;;;;;4990209;28;20055;-83
2023/07/05 08:26:38;;;;;;;2.45;0.40;;;13.10;76.70;;;;;;4990248;28;20101;-83
2023/07/05 08:29:05;;;;;;;2.85;0.40;;;13.00;77.20;;;;;;5004809;28;20050;-80
2023/07/05 08:31:32;;;;;;;2.33;0.45;;;13.00;77.70;;;;;;4991715;28;20067;-76
2023/07/05 08:33:59;;;;;;;3.03;0.43;;;13.00;78.00;;;;;;4992799;28;20567;-83
2023/07/05 08:36:33;;;;;;;4.05;0.85;;;12.90;78.30;;;;;;4995818;28;20055;-82
2023/07/05 08:39:05;;;;;;;3.10;0.60;;;12.90;78.80;;;;;;4986490;28;20142;-80
2023/07/05 08:41:45;;;;;;;3.30;0.68;;;12.90;79.00;;;;;;4999391;28;20088;-83
2023/07/05 08:44:21;;;;;;;3.35;0.38;;;12.90;79.70;;;;;;4985242;28;20154;-81
2023/07/05 08:46:56;;;;;;;3.17;0.60;;;12.80;79.70;;;;;;4987265;28;20114;-78
2023/07/05 08:49:26;;;;;;;4.00;0.77;;;12.80;80.70;;;;;;4993168;28;20078;-81
2023/07/05 08:51:56;;;;;;;6.03;1.00;;;12.80;81.10;;;;;;4995720;28;20047;-84
2023/07/05 08:54:31;;;;;;;3.15;0.80;;;12.80;81.50;;;;;;4986374;28;20051;-81
2023/07/05 08:57:04;;;;;;;3.15;0.90;;;12.80;82.00;;;;;;4983349;28;20054;-80
2023/07/05 08:59:41;;;;;;;4.13;0.87;;;12.80;82.20;;;;;;4967514;28;20102;-79
2023/07/05 09:02:11;;;;;;;3.53;1.00;;;12.90;81.90;;;;;;4979878;28;20523;-84
2023/07/05 09:04:39;;;;;;;4.20;0.85;;;12.90;82.30;;;;;;4988102;28;20418;-85
2023/07/05 09:07:13;;;;;;;4.13;0.90;;;12.90;82.20;;;;;;4980186;28;20109;-88
2023/07/05 09:09:54;;;;;;;3.33;0.82;;;12.90;82.10;;;;;;4968853;28;20130;-79
2023/07/05 09:12:27;;;;;;;5.03;1.10;;;12.90;82.30;;;;;;4989934;28;20050;-80
2023/07/05 09:15:14;;;;;;;4.13;0.90;;;12.90;82.60;;;;;;4994372;28;20202;-79
2023/07/05 09:17:50;;;;;;;4.55;1.10;;;13.00;82.30;;;;;;4991399;28;20059;-83
2023/07/05 09:20:48;;;;;;;6.65;1.20;;;13.00;82.60;;;;;;5022402;28;20535;-82
2023/07/05 09:23:23;;;;;;;7.93;1.30;;;13.00;82.70;;;;;;4973809;28;20138;-81
2023/07/05 09:25:58;;;;;;;7.20;1.40;;;13.00;83.10;;;;;;4990956;28;20513;-79
2023/07/05 09:28:30;;;;;;;6.60;1.40;;;13.10;82.90;;;;;;4997074;28;20081;-81
2023/07/05 09:30:59;;;;;;;7.72;1.83;;;13.10;83.00;;;;;;5012065;28;20259;-82
2023/07/05 09:33:32;;;;;;;5.55;1.42;;;13.10;83.40;;;;;;4994576;28;20136;-80
2023/07/05 09:36:04;;;;;;;8.85;1.90;;;13.10;83.30;;;;;;5006636;28;20061;-84
2023/07/05 09:38:35;;;;;;;9.60;2.20;;;13.10;83.60;;;;;;5002390;28;20710;-81
2023/07/05 09:41:07;;;;;;;10.70;2.00;;;13.10;83.80;;;;;;5010381;28;20050;-87
2023/07/05 09:43:36;;;;;;;8.18;1.77;;;13.10;83.70;;;;;;4986760;28;20557;-84
2023/07/05 09:46:06;;;;;;;8.40;1.60;;;13.10;84.10;;;;;;4980549;28;20055;-83
2023/07/05 09:48:41;;;;;;;6.97;1.55;;;13.10;84.20;;;;;;4957835;28;20051;-84
2023/07/05 09:54:01;;;;;;;8.35;1.90;;;13.10;84.80;;;;;;4966315;28;20047;-83
2023/07/05 09:56:31;;;;;;;8.05;2.03;;;13.10;85.30;;;;;;4970992;28;20686;-83
2023/07/05 09:59:08;;;;;;;8.55;1.48;;;13.10;85.70;;;;;;5000589;28;20051;-89
2023/07/05 10:01:38;;;;;;;5.05;1.00;;;13.10;85.90;;;;;;4965639;28;20052;-85
2023/07/05 10:04:06;;;;;;;9.83;1.73;;;13.10;86.20;;;;;;4970862;28;20215;-89
2023/07/05 10:06:34;;;;;;;7.78;1.60;;;13.10;86.50;;;;;;4977649;28;20047;-88
2023/07/05 10:09:09;;;;;;;6.65;1.50;;;13.10;86.80;;;;;;4995630;28;20047;-80
2023/07/05 10:11:44;;;;;;;6.50;1.27;;;13.10;87.00;;;;;;4960972;28;20055;-86
2023/07/05 10:14:14;;;;;;;7.68;1.20;;;13.20;87.00;;;;;;4954002;28;20055;-79
2023/07/05 10:16:48;;;;;;;7.07;1.40;;;13.20;87.10;;;;;;5000874;28;20058;-87
2023/07/05 10:19:23;;;;;;;6.00;1.20;;;13.30;87.10;;;;;;4979749;28;20101;-86
2023/07/05 10:21:54;;;;;;;5.45;1.60;;;13.30;87.00;;;;;;4952545;28;20051;-82
2023/07/05 10:24:22;;;;;;;7.25;1.50;;;13.30;87.20;;;;;;4954011;28;20146;-84
2023/07/05 10:26:52;;;;;;;6.18;1.65;;;13.30;87.20;;;;;;4962371;28;20051;-86
2023/07/05 10:29:22;;;;;;;5.83;1.53;;;13.30;87.40;;;;;;4965467;28;20079;-84
2023/07/05 10:31:56;;;;;;;7.07;1.40;;;13.30;87.40;;;;;;4971804;28;20416;-86
2023/07/05 10:34:24;;;;;;;6.07;1.50;;;13.30;87.50;;;;;;4968211;28;20050;-85
2023/07/05 10:36:53;;;;;;;5.25;1.20;;;13.40;87.50;;;;;;4967544;28;20055;-86
2023/07/05 10:39:24;;;;;;;6.90;1.65;;;13.50;87.60;;;;;;4950610;28;21011;-84
2023/07/05 10:41:57;;;;;;;5.27;0.93;;;13.50;87.60;;;;;;4967713;28;20063;-83
2023/07/05 10:44:32;;;;;;;5.60;1.38;;;13.50;87.50;;;;;;4984547;28;20058;-84
2023/07/05 10:47:00;;;;;;;7.18;1.92;;;13.50;87.70;;;;;;4982169;28;20051;-88
2023/07/05 10:49:30;;;;;;;7.93;1.60;;;13.50;87.40;;;;;;4965638;28;20134;-86
2023/07/05 10:52:01;;;;;;;5.10;1.20;;;13.60;87.20;;;;;;4984693;28;20137;-89
2023/07/05 10:54:37;;;;;;;6.47;1.60;;;13.60;87.00;;;;;;4993077;28;20181;-85
2023/07/05 10:57:15;;;;;;;6.00;1.20;;;13.60;87.10;;;;;;4983074;28;20418;-88
2023/07/05 10:59:46;;;;;;;7.00;1.90;;;13.60;87.00;;;;;;4968150;28;20134;-85
2023/07/05 11:02:33;;;;;;;9.63;1.52;;;13.60;87.20;;;;;;4954524;28;20059;-87
2023/07/05 11:05:01;;;;;;;6.32;1.40;;;13.70;86.90;;;;;;4971657;28;20544;-87
2023/07/05 11:07:32;;;;;;;7.70;1.53;;;13.70;86.30;;;;;;4970248;28;20058;-86
2023/07/05 11:09:59;;;;;;;5.90;1.33;;;13.80;85.70;;;;;;4962099;28;20171;-84
2023/07/05 11:12:30;;;;;;;4.55;1.10;;;13.80;85.50;;;;;;4986306;28;20054;-87
2023/07/05 11:14:59;;;;;;;4.30;1.33;;;13.90;84.70;;;;;;4984336;28;20059;-82
2023/07/05 11:17:32;;;;;;;5.07;1.45;;;13.80;84.30;;;;;;4982278;28;20194;-82
2023/07/05 11:19:59;;;;;;;5.53;1.40;;;13.70;84.70;;;;;;4979645;28;20062;-83
2023/07/05 11:22:44;;;;;;;4.30;1.38;;;13.70;84.60;;;;;;4977835;28;20399;-85
2023/07/05 11:25:13;;;;;;;6.10;1.40;;;13.60;83.90;;;;;;4969909;28;20242;-83
2023/07/05 11:27:52;;;;;;;5.95;1.30;;;13.60;82.90;;;;;;4988740;28;20054;-84
2023/07/05 11:30:44;;;;;;;6.25;1.27;;;13.60;82.30;;;;;;4985916;28;20132;-82
2023/07/05 11:33:20;;;;;;;5.70;1.30;;;13.50;82.40;;;;;;4959085;28;20063;-85
2023/07/05 11:35:49;;;;;;;4.55;1.17;;;13.30;83.10;;;;;;4975703;28;20086;-81
2023/07/05 11:39:03;;;;;;;4.63;1.60;;;13.30;83.80;;;;;;4979491;28;20126;-81
2023/07/05 11:41:32;;;;;;;7.22;1.48;;;13.10;84.20;;;;;;4993595;28;20055;-82
2023/07/05 11:44:03;;;;;;;5.95;1.50;;;13.10;84.50;;;;;;4999460;28;20131;-82
2023/07/05 11:46:39;;;;;;;7.50;1.40;;;13.00;84.80;;;;;;4953437;28;20859;-86
2023/07/05 11:49:34;;;;;;;6.13;1.27;;;13.00;85.10;;;;;;4977841;28;20211;-82
2023/07/05 11:52:14;;;;;;;5.40;1.40;;;12.90;85.50;;;;;;4966878;28;20065;-82
2023/07/05 11:54:53;;;;;;;5.57;1.25;;;12.90;86.20;;;;;;4983444;28;20141;-82
2023/07/05 11:57:21;;;;;;;9.10;1.30;;;12.80;86.50;;;;;;4967637;28;20066;-85
2023/07/05 11:59:56;;;;;;;7.00;1.60;;;12.80;86.70;;;;;;4969043;28;20078;-86
2023/07/05 12:02:36;;;;;;;5.22;1.33;;;12.80;86.70;;;;;;4969857;28;20046;-83
2023/07/05 12:05:09;;;;;;;5.40;1.20;;;12.90;87.00;;;;;;4975556;28;20054;-82
2023/07/05 12:07:38;;;;;;;4.95;1.30;;;12.90;87.30;;;;;;4965896;28;20055;-82
2023/07/05 12:10:08;;;;;;;5.65;1.02;;;12.90;87.10;;;;;;4976865;28;20043;-79
2023/07/05 12:12:39;;;;;;;5.33;1.40;;;12.90;86.80;;;;;;4968856;28;20055;-84
2023/07/05 12:15:11;;;;;;;6.63;1.30;;;13.00;86.50;;;;;;4993792;28;20077;-83
2023/07/05 12:17:39;;;;;;;6.00;1.42;;;13.00;86.50;;;;;;4969296;28;20796;-83
2023/07/05 12:20:22;;;;;;;6.35;1.65;;;13.10;86.90;;;;;;4968879;28;20158;-83
2023/07/05 12:22:50;;;;;;;7.97;1.90;;;13.10;87.00;;;;;;4968946;28;20154;-83
2023/07/05 12:25:19;;;;;;;5.10;1.30;;;13.10;87.20;;;;;;4968895;28;20133;-82
2023/07/05 12:27:47;;;;;;;6.32;1.35;;;13.10;87.50;;;;;;4969210;28;20151;-82
2023/07/05 12:30:19;;;;;;;8.63;1.73;;;13.10;87.50;;;;;;4977185;28;20505;-85
2023/07/05 12:32:55;;;;;;;8.40;1.75;;;13.10;87.60;;;;;;4968759;28;20153;-82
2023/07/05 12:35:24;;;;;;;6.82;1.38;;;13.10;87.30;;;;;;4967658;28;20154;-86
2023/07/05 12:37:53;;;;;;;7.33;1.37;;;13.10;87.30;;;;;;4952539;28;20134;-83
2023/07/05 12:40:24;;;;;;;7.75;1.60;;;13.10;87.40;;;;;;4966100;28;20055;-85
2023/07/05 12:42:53;;;;;;;5.60;1.65;;;13.10;87.30;;;;;;4951884;28;20055;-85
2023/07/05 12:45:25;;;;;;;6.10;1.50;;;13.20;87.50;;;;;;5000723;28;21075;-85
2023/07/05 12:47:53;;;;;;;7.32;1.67;;;13.10;87.40;;;;;;4975301;28;20053;-81
2023/07/05 12:50:23;;;;;;;6.50;1.67;;;13.20;87.20;;;;;;4974570;28;20052;-83
2023/07/05 12:53:05;;;;;;;8.10;1.77;;;13.30;87.00;;;;;;4955817;28;20047;-80
2023/07/05 12:55:35;;;;;;;4.40;0.95;;;13.20;86.70;;;;;;4994610;28;20138;-81
2023/07/05 12:58:06;;;;;;;5.50;0.85;;;13.10;86.90;;;;;;4982528;28;20051;-79
2023/07/05 13:00:35;;;;;;;7.60;1.65;;;13.10;87.10;;;;;;4983306;28;20047;-81
2023/07/05 13:03:03;;;;;;;7.93;2.07;;;13.10;87.40;;;;;;4982581;28;20055;-82
2023/07/05 13:05:31;;;;;;;12.15;2.22;;;13.10;87.50;;;;;;4972518;28;20106;-81
2023/07/05 13:08:02;;;;;;;5.95;1.63;;;13.10;87.70;;;;;;4986750;28;20054;-80